createdAt,value
2022-07-29T00:01:48.909Z,97156.53
2022-07-29T00:04:15.739Z,97146.56
2022-07-29T00:06:42.553Z,97143.84
2022-07-29T00:09:09.159Z,97141.63
2022-07-29T00:11:35.653Z,97138.28
2022-07-29T00:14:02.203Z,97139.13
2022-07-29T00:16:28.824Z,97134.13
2022-07-29T00:18:55.345Z,97136.38
2022-07-29T00:21:21.838Z,97129.47
2022-07-29T00:23:48.410Z,97133.72
2022-07-29T00:26:14.876Z,97140.44
2022-07-29T00:28:41.430Z,97134.06
2022-07-29T00:31:08.968Z,97129.47
2022-07-29T00:33:35.535Z,97137.19
2022-07-29T00:36:01.995Z,97134.75
2022-07-29T00:38:28.517Z,97128.69
2022-07-29T00:40:55.007Z,97133.03
2022-07-29T00:43:21.656Z,97132.72
2022-07-29T00:45:48.152Z,97118.13
2022-07-29T00:48:14.666Z,97119.44
2022-07-29T00:50:41.265Z,97108.81
2022-07-29T00:53:09.211Z,97106.38
2022-07-29T00:55:36.333Z,97107.78
2022-07-29T00:58:03.035Z,97099.78
2022-07-29T01:00:31.667Z,97100.78
2022-07-29T01:02:58.843Z,97103.13
2022-07-29T01:05:51.559Z,97106.19
2022-07-29T01:08:16.954Z,97097.03
2022-07-29T01:10:44.830Z,97099.88
2022-07-29T01:13:12.469Z,97087.00
2022-07-29T01:15:49.280Z,97094.78
2022-07-29T01:18:29.356Z,97087.09
2022-07-29T01:21:27.642Z,97097.63
2022-07-29T01:24:20.594Z,97093.69
2022-07-29T01:26:53.378Z,97090.72
2022-07-29T01:29:36.255Z,97095.59
2022-07-29T01:32:27.807Z,97095.41
2022-07-29T01:35:07.094Z,97090.19
2022-07-29T01:37:40.409Z,97095.38
2022-07-29T01:40:15.655Z,97094.28
2022-07-29T01:42:49.600Z,97095.06
2022-07-29T01:45:34.453Z,97090.84
2022-07-29T01:48:11.238Z,97084.03
2022-07-29T01:50:46.551Z,97087.09
2022-07-29T01:53:15.793Z,97081.50
2022-07-29T01:55:45.633Z,97080.06
2022-07-29T01:58:15.149Z,97082.38
2022-07-29T02:00:43.631Z,97080.16
2022-07-29T02:03:13.081Z,97078.44
2022-07-29T02:05:43.259Z,97075.34
2022-07-29T02:08:11.565Z,97082.97
2022-07-29T02:10:40.977Z,97083.50
2022-07-29T02:13:08.614Z,97078.31
2022-07-29T02:15:36.465Z,97076.91
2022-07-29T02:18:07.106Z,97078.09
2022-07-29T02:20:34.953Z,97088.69
2022-07-29T02:23:03.126Z,97084.81
2022-07-29T02:25:36.922Z,97081.38
2022-07-29T02:28:06.158Z,97081.97
2022-07-29T02:30:33.880Z,97085.72
2022-07-29T02:33:01.340Z,97085.22
2022-07-29T02:35:28.210Z,97088.88
2022-07-29T02:38:21.691Z,97088.34
2022-07-29T02:40:50.717Z,97079.53
2022-07-29T02:43:19.526Z,97078.91
2022-07-29T02:45:48.306Z,97087.25
2022-07-29T02:48:23.437Z,97079.94
2022-07-29T02:50:51.261Z,97081.56
2022-07-29T02:53:26.098Z,97084.09
2022-07-29T02:56:02.836Z,97079.34
2022-07-29T02:58:33.343Z,97076.00
2022-07-29T03:01:04.006Z,97081.72
2022-07-29T03:03:34.945Z,97080.81
2022-07-29T03:06:03.850Z,97080.50
2022-07-29T03:08:32.970Z,97082.75
2022-07-29T03:11:01.000Z,97080.81
2022-07-29T03:13:29.404Z,97088.53
2022-07-29T03:15:56.441Z,97090.13
2022-07-29T03:18:23.279Z,97091.16
2022-07-29T03:20:49.891Z,97097.84
2022-07-29T03:23:21.797Z,97103.94
2022-07-29T03:25:48.638Z,97097.66
2022-07-29T03:28:15.234Z,97101.59
2022-07-29T03:30:44.611Z,97100.38
2022-07-29T03:33:13.268Z,97097.03
2022-07-29T03:35:40.598Z,97103.50
2022-07-29T03:38:07.137Z,97096.66
2022-07-29T03:40:59.344Z,97098.22
2022-07-29T03:43:29.970Z,97099.03
2022-07-29T03:45:58.591Z,97099.25
2022-07-29T03:48:27.446Z,97096.59
2022-07-29T03:50:54.027Z,97098.59
2022-07-29T03:53:20.970Z,97102.13
2022-07-29T03:55:51.994Z,97099.63
2022-07-29T03:58:20.318Z,97098.22
2022-07-29T04:00:48.017Z,97096.16
2022-07-29T04:03:16.006Z,97099.16
2022-07-29T04:05:42.647Z,97098.94
2022-07-29T04:08:09.127Z,97095.38
2022-07-29T04:10:35.931Z,97097.13
2022-07-29T04:13:02.721Z,97099.78
2022-07-29T04:15:31.362Z,97093.53
2022-07-29T04:17:58.779Z,97101.59
2022-07-29T04:20:25.369Z,97098.94
2022-07-29T04:22:51.935Z,97107.06
2022-07-29T04:25:18.491Z,97109.31
2022-07-29T04:28:03.233Z,97111.53
2022-07-29T04:30:31.248Z,97098.34
2022-07-29T04:32:57.807Z,97104.13
2022-07-29T04:35:24.413Z,97106.97
2022-07-29T04:37:50.985Z,97098.25
2022-07-29T04:40:17.544Z,97100.59
2022-07-29T04:42:46.569Z,97099.88
2022-07-29T04:45:15.045Z,97104.13
2022-07-29T04:47:42.877Z,97108.47
2022-07-29T04:50:10.493Z,97108.00
2022-07-29T04:52:37.646Z,97105.25
2022-07-29T04:55:05.492Z,97107.38
2022-07-29T04:57:32.022Z,97100.69
2022-07-29T04:59:58.538Z,97099.97
2022-07-29T05:02:25.119Z,97103.22
2022-07-29T05:04:51.643Z,97102.41
2022-07-29T05:07:18.247Z,97099.94
2022-07-29T05:09:44.984Z,97103.50
2022-07-29T05:12:11.805Z,97112.09
2022-07-29T05:14:38.365Z,97108.06
2022-07-29T05:17:04.926Z,97111.69
2022-07-29T05:19:31.530Z,97106.19
2022-07-29T05:21:58.018Z,97121.09
2022-07-29T05:24:24.497Z,97109.69
2022-07-29T05:26:51.009Z,97119.06
2022-07-29T05:29:42.776Z,97123.88
2022-07-29T05:32:04.765Z,97122.03
2022-07-29T05:34:31.834Z,97129.19
2022-07-29T05:36:58.724Z,97132.91
2022-07-29T05:39:46.606Z,97126.22
2022-07-29T05:42:12.651Z,97134.09
2022-07-29T05:44:40.520Z,97138.28
2022-07-29T05:47:07.471Z,97132.16
2022-07-29T05:49:34.174Z,97137.84
2022-07-29T05:52:00.700Z,97139.50
2022-07-29T05:54:27.254Z,97141.06
2022-07-29T05:56:53.725Z,97145.06
2022-07-29T05:59:20.226Z,97144.63
2022-07-29T06:01:46.777Z,97145.78
2022-07-29T06:04:13.772Z,97143.63
2022-07-29T06:06:40.485Z,97150.34
2022-07-29T06:09:12.713Z,97150.16
2022-07-29T06:11:40.581Z,97158.41
2022-07-29T06:14:07.093Z,97161.69
2022-07-29T06:16:33.639Z,97161.38
2022-07-29T06:19:00.151Z,97166.09
2022-07-29T06:21:26.757Z,97161.31
2022-07-29T06:23:53.250Z,97166.19
2022-07-29T06:26:30.697Z,97165.25
2022-07-29T06:28:58.521Z,97158.81
2022-07-29T06:31:25.090Z,97155.94
2022-07-29T06:33:51.815Z,97168.13
2022-07-29T06:36:21.397Z,97165.41
2022-07-29T06:38:51.581Z,97166.88
2022-07-29T06:41:18.916Z,97169.63
2022-07-29T06:43:51.973Z,97171.44
2022-07-29T06:46:22.455Z,97178.53
2022-07-29T06:48:49.652Z,97181.78
2022-07-29T06:51:17.355Z,97178.72
2022-07-29T06:53:59.475Z,97176.94
2022-07-29T06:56:39.572Z,97186.94
2022-07-29T06:59:08.578Z,97179.13
2022-07-29T07:01:37.108Z,97177.00
2022-07-29T07:04:03.752Z,97188.88
2022-07-29T07:06:30.295Z,97184.31
2022-07-29T07:08:57.358Z,97190.94
2022-07-29T07:11:23.960Z,97189.78
2022-07-29T07:13:50.561Z,97187.03
2022-07-29T07:16:17.266Z,97193.50
2022-07-29T07:18:45.962Z,97196.88
2022-07-29T07:21:13.102Z,97197.84
2022-07-29T07:23:46.223Z,97198.13
2022-07-29T07:26:12.761Z,97196.84
2022-07-29T07:28:39.238Z,97189.41
2022-07-29T07:31:06.139Z,97195.56
2022-07-29T07:33:32.624Z,97185.50
2022-07-29T07:35:59.422Z,97194.56
2022-07-29T07:38:25.942Z,97199.25
2022-07-29T07:40:52.494Z,97204.50
2022-07-29T07:43:18.964Z,97197.81
2022-07-29T07:45:45.530Z,97203.50
2022-07-29T07:48:12.127Z,97198.44
2022-07-29T07:50:38.662Z,97195.69
2022-07-29T07:53:05.464Z,97200.25
2022-07-29T07:55:53.239Z,97209.84
2022-07-29T07:58:18.440Z,97205.44
2022-07-29T08:00:44.942Z,97203.50
2022-07-29T08:03:16.953Z,97205.03
2022-07-29T08:05:44.904Z,97205.97
2022-07-29T08:08:11.370Z,97200.34
2022-07-29T08:10:53.337Z,97198.16
2022-07-29T08:13:22.057Z,97208.25
2022-07-29T08:15:57.697Z,97206.75
2022-07-29T08:18:31.633Z,97211.81
2022-07-29T08:20:59.053Z,97207.00
2022-07-29T08:23:31.499Z,97217.22
2022-07-29T08:26:14.109Z,97203.06
2022-07-29T08:28:45.629Z,97203.34
2022-07-29T08:31:13.709Z,97204.13
2022-07-29T08:33:40.266Z,97209.53
2022-07-29T08:36:07.207Z,97207.94
2022-07-29T08:38:34.122Z,97207.59
2022-07-29T08:41:04.148Z,97207.69
2022-07-29T08:43:30.632Z,97199.91
2022-07-29T08:45:57.215Z,97202.09
2022-07-29T08:48:24.700Z,97209.22
2022-07-29T08:50:56.440Z,97209.44
2022-07-29T08:53:27.341Z,97200.78
2022-07-29T08:55:54.422Z,97206.91
2022-07-29T08:58:23.188Z,97206.09
2022-07-29T09:00:56.377Z,97207.94
2022-07-29T09:03:30.584Z,97203.25
2022-07-29T09:05:57.487Z,97203.31
2022-07-29T09:08:24.537Z,97199.41
2022-07-29T09:10:52.126Z,97203.31
2022-07-29T09:13:19.120Z,97205.72
2022-07-29T09:15:46.270Z,97212.13
2022-07-29T09:18:20.654Z,97215.81
2022-07-29T09:21:16.140Z,97223.22
2022-07-29T09:24:01.069Z,97206.75
2022-07-29T09:26:32.336Z,97211.91
2022-07-29T09:29:00.011Z,97212.69
2022-07-29T09:31:50.853Z,97220.38
2022-07-29T09:34:22.513Z,97216.00
2022-07-29T09:36:51.335Z,97207.06
2022-07-29T09:39:29.902Z,97205.25
2022-07-29T09:41:58.839Z,97208.03
2022-07-29T09:44:26.035Z,97210.97
2022-07-29T09:46:59.247Z,97192.66
2022-07-29T09:49:26.616Z,97199.75
2022-07-29T09:52:10.437Z,97205.00
2022-07-29T09:54:37.758Z,97200.41
2022-07-29T09:57:07.393Z,97196.03
2022-07-29T09:59:34.524Z,97196.25
2022-07-29T10:02:01.458Z,97194.06
2022-07-29T10:04:43.592Z,97194.44
2022-07-29T10:07:10.779Z,97198.88
2022-07-29T10:09:37.485Z,97198.97
2022-07-29T10:12:08.199Z,97205.13
2022-07-29T10:14:35.516Z,97203.53
2022-07-29T10:17:03.702Z,97206.28
2022-07-29T10:19:32.027Z,97204.13
2022-07-29T10:22:00.351Z,97181.25
2022-07-29T10:24:28.221Z,97193.69
2022-07-29T10:26:59.145Z,97196.38
2022-07-29T10:29:26.125Z,97198.56
2022-07-29T10:32:51.157Z,97200.22
2022-07-29T10:35:50.488Z,97211.50
2022-07-29T10:38:30.347Z,97202.03
2022-07-29T10:41:28.991Z,97196.72
2022-07-29T10:44:17.074Z,97204.44
2022-07-29T10:46:44.360Z,97195.94
2022-07-29T10:49:18.303Z,97204.44
2022-07-29T10:51:51.046Z,97201.31
2022-07-29T10:54:37.018Z,97195.34
2022-07-29T10:57:13.350Z,97187.97
2022-07-29T10:59:44.300Z,97181.44
2022-07-29T11:02:41.955Z,97175.59
2022-07-29T11:05:13.625Z,97168.19
2022-07-29T11:08:02.348Z,97173.09
2022-07-29T11:10:31.682Z,97170.53
2022-07-29T11:12:59.105Z,97178.88
2022-07-29T11:18:15.195Z,97176.97
2022-07-29T11:20:46.718Z,97172.38
2022-07-29T11:23:27.370Z,97169.25
2022-07-29T11:26:22.885Z,97164.34
2022-07-29T11:29:04.246Z,97179.34
2022-07-29T11:31:44.476Z,97179.31
2022-07-29T11:34:28.200Z,97168.31
2022-07-29T11:37:12.416Z,97175.31
2022-07-29T11:39:40.100Z,97179.59
2022-07-29T11:42:32.080Z,97177.94
2022-07-29T11:45:41.169Z,97180.63
2022-07-29T11:48:05.344Z,97182.59
2022-07-29T11:50:45.745Z,97177.75
2022-07-29T11:53:16.174Z,97177.56
2022-07-29T11:55:51.626Z,97186.97
2022-07-29T11:58:26.338Z,97189.44
2022-07-29T12:00:55.549Z,97190.63
2022-07-29T12:03:35.546Z,97185.03
2022-07-29T12:06:07.450Z,97188.84
2022-07-29T12:08:43.860Z,97182.06
2022-07-29T12:11:22.469Z,97186.63
2022-07-29T12:13:51.984Z,97184.06
2022-07-29T12:16:25.573Z,97177.78
2022-07-29T12:19:00.430Z,97186.28
2022-07-29T12:21:29.330Z,97184.41
2022-07-29T12:24:01.875Z,97190.63
2022-07-29T12:26:34.206Z,97189.81
2022-07-29T12:29:03.469Z,97193.00
2022-07-29T12:31:42.835Z,97195.03
2022-07-29T12:34:15.947Z,97192.97
2022-07-29T12:36:43.816Z,97193.38
2022-07-29T12:39:11.524Z,97190.09
2022-07-29T12:41:38.420Z,97188.50
2022-07-29T12:44:05.163Z,97186.09
2022-07-29T12:46:32.467Z,97175.38
2022-07-29T12:48:59.558Z,97191.66
2022-07-29T12:51:32.135Z,97186.38
2022-07-29T12:54:11.641Z,97185.47
2022-07-29T12:56:43.498Z,97190.59
2022-07-29T12:59:21.950Z,97195.47
2022-07-29T13:01:50.445Z,97199.63
2022-07-29T13:04:31.521Z,97193.06
2022-07-29T13:07:08.243Z,97195.25
2022-07-29T13:09:43.631Z,97187.59
2022-07-29T13:12:12.330Z,97196.09
2022-07-29T13:14:41.343Z,97195.25
2022-07-29T13:17:23.105Z,97193.06
2022-07-29T13:19:50.683Z,97207.25
2022-07-29T13:22:19.665Z,97206.91
2022-07-29T13:24:56.417Z,97206.56
2022-07-29T13:27:25.577Z,97208.38
2022-07-29T13:29:53.325Z,97217.16
2022-07-29T13:32:28.188Z,97209.28
2022-07-29T13:35:05.298Z,97212.19
2022-07-29T13:37:34.937Z,97215.94
2022-07-29T13:40:03.874Z,97207.50
2022-07-29T13:42:30.947Z,97209.00
2022-07-29T13:44:57.482Z,97198.97
2022-07-29T13:47:32.395Z,97206.91
2022-07-29T13:50:00.754Z,97204.41
2022-07-29T13:52:27.274Z,97201.84
2022-07-29T13:54:53.857Z,97199.50
2022-07-29T13:57:20.418Z,97190.47
2022-07-29T13:59:51.874Z,97186.59
2022-07-29T14:02:20.846Z,97186.56
2022-07-29T14:04:47.560Z,97180.97
2022-07-29T14:07:16.359Z,97183.47
2022-07-29T14:09:43.321Z,97169.81
2022-07-29T14:12:10.297Z,97175.41
2022-07-29T14:14:37.528Z,97174.16
2022-07-29T14:17:07.177Z,97172.16
2022-07-29T14:19:36.562Z,97168.75
2022-07-29T14:22:04.793Z,97166.59
2022-07-29T14:24:32.341Z,97170.00
2022-07-29T14:26:59.229Z,97173.94
2022-07-29T14:29:37.515Z,97170.22
2022-07-29T14:32:07.653Z,97171.78
2022-07-29T14:34:35.285Z,97170.50
2022-07-29T14:37:01.846Z,97177.84
2022-07-29T14:39:31.633Z,97186.50
2022-07-29T14:41:59.135Z,97178.56
2022-07-29T14:44:31.759Z,97181.94
2022-07-29T14:47:07.695Z,97182.81
2022-07-29T14:49:35.572Z,97187.28
2022-07-29T14:52:02.170Z,97192.94
2022-07-29T14:54:28.656Z,97182.13
2022-07-29T14:56:57.865Z,97182.63
2022-07-29T14:59:24.563Z,97182.31
2022-07-29T15:01:51.093Z,97179.72
2022-07-29T15:04:17.601Z,97182.72
2022-07-29T15:06:44.724Z,97185.91
2022-07-29T15:09:11.547Z,97194.31
2022-07-29T15:11:38.759Z,97184.84
2022-07-29T15:14:06.623Z,97181.72
2022-07-29T15:16:33.643Z,97186.03
2022-07-29T15:19:01.958Z,97190.34
2022-07-29T15:21:28.649Z,97183.84
2022-07-29T15:23:55.245Z,97177.44
2022-07-29T15:26:22.240Z,97176.03
2022-07-29T15:28:48.843Z,97183.25
2022-07-29T15:31:15.812Z,97187.78
2022-07-29T15:33:42.365Z,97197.09
2022-07-29T15:36:09.217Z,97193.47
2022-07-29T15:38:35.781Z,97191.34
2022-07-29T15:41:08.586Z,97195.00
2022-07-29T15:43:36.127Z,97188.59
2022-07-29T15:46:41.071Z,97199.84
2022-07-29T15:49:08.331Z,97201.31
2022-07-29T15:51:34.961Z,97198.59
2022-07-29T15:54:03.586Z,97199.47
2022-07-29T15:56:30.541Z,97195.94
2022-07-29T15:58:57.338Z,97191.38
2022-07-29T16:01:24.919Z,97196.84
2022-07-29T16:03:51.558Z,97204.88
2022-07-29T16:06:18.118Z,97192.47
2022-07-29T16:08:44.734Z,97193.88
2022-07-29T16:11:11.230Z,97197.69
2022-07-29T16:13:37.817Z,97194.94
2022-07-29T16:16:04.861Z,97195.69
2022-07-29T16:18:31.428Z,97182.44
2022-07-29T16:20:58.177Z,97191.91
2022-07-29T16:23:25.214Z,97192.53
2022-07-29T16:26:00.628Z,97184.53
2022-07-29T16:28:28.797Z,97184.69
2022-07-29T16:30:55.565Z,97187.53
2022-07-29T16:33:22.201Z,97188.97
2022-07-29T16:35:48.917Z,97177.97
2022-07-29T16:38:15.798Z,97192.06
2022-07-29T16:40:42.844Z,97177.84
2022-07-29T16:43:09.757Z,97182.44
2022-07-29T16:45:43.907Z,97188.63
2022-07-29T16:48:12.640Z,97193.34
2022-07-29T16:50:39.954Z,97195.53
2022-07-29T16:53:06.853Z,97193.25
2022-07-29T16:55:33.806Z,97191.38
2022-07-29T16:58:00.309Z,97203.13
2022-07-29T17:00:26.890Z,97199.66
2022-07-29T17:02:53.492Z,97204.78
2022-07-29T17:05:20.070Z,97194.16
2022-07-29T17:07:46.621Z,97196.66
2022-07-29T17:10:13.153Z,97195.00
2022-07-29T17:12:41.249Z,97197.56
2022-07-29T17:15:10.990Z,97199.94
2022-07-29T17:17:39.477Z,97193.69
2022-07-29T17:20:22.157Z,97201.09
2022-07-29T17:22:48.609Z,97205.13
2022-07-29T17:25:20.913Z,97202.09
2022-07-29T17:27:49.385Z,97202.38
2022-07-29T17:30:16.101Z,97207.56
2022-07-29T17:32:42.710Z,97201.72
2022-07-29T17:35:28.516Z,97207.28
2022-07-29T17:37:55.261Z,97201.19
2022-07-29T17:40:22.063Z,97206.44
2022-07-29T17:42:48.599Z,97211.63
2022-07-29T17:45:15.295Z,97198.47
2022-07-29T17:47:41.870Z,97207.34
2022-07-29T17:50:08.621Z,97205.34
2022-07-29T17:52:35.525Z,97201.69
2022-07-29T17:55:02.534Z,97209.88
2022-07-29T17:57:29.158Z,97207.72
2022-07-29T17:59:55.645Z,97202.91
2022-07-29T18:02:22.261Z,97202.44
2022-07-29T18:04:51.522Z,97211.00
2022-07-29T18:07:18.518Z,97213.13
2022-07-29T18:09:45.197Z,97203.59
2022-07-29T18:12:11.751Z,97214.47
2022-07-29T18:14:38.651Z,97214.91
2022-07-29T18:17:05.147Z,97213.41
2022-07-29T18:19:31.748Z,97215.09
2022-07-29T18:22:03.204Z,97215.88
2022-07-29T18:24:32.349Z,97221.59
2022-07-29T18:26:59.085Z,97222.75
2022-07-29T18:29:28.703Z,97221.50
2022-07-29T18:31:55.239Z,97223.13
2022-07-29T18:34:21.735Z,97229.47
2022-07-29T18:36:48.205Z,97221.44
2022-07-29T18:39:20.800Z,97227.91
2022-07-29T18:41:50.240Z,97226.84
2022-07-29T18:44:19.379Z,97225.81
2022-07-29T18:46:48.773Z,97227.31
2022-07-29T18:49:15.582Z,97220.47
2022-07-29T18:51:42.182Z,97228.28
2022-07-29T18:54:09.993Z,97223.88
2022-07-29T18:56:37.203Z,97230.91
2022-07-29T18:59:04.207Z,97224.94
2022-07-29T19:01:31.681Z,97229.06
2022-07-29T19:03:59.347Z,97236.66
2022-07-29T19:06:26.145Z,97236.81
2022-07-29T19:08:53.288Z,97248.69
2022-07-29T19:11:19.766Z,97237.22
2022-07-29T19:13:46.373Z,97246.50
2022-07-29T19:16:14.042Z,97253.00
2022-07-29T19:18:41.488Z,97254.34
2022-07-29T19:21:08.001Z,97252.72
2022-07-29T19:24:05.839Z,97268.03
2022-07-29T19:26:21.190Z,97271.09
2022-07-29T19:28:48.810Z,97269.28
2022-07-29T19:31:15.861Z,97272.69
2022-07-29T19:33:42.734Z,97273.81
2022-07-29T19:36:09.354Z,97279.94
2022-07-29T19:38:38.090Z,97277.44
2022-07-29T19:41:06.111Z,97285.53
2022-07-29T19:43:52.243Z,97287.97
2022-07-29T19:46:20.400Z,97292.16
2022-07-29T19:48:47.040Z,97295.03
2022-07-29T19:51:13.837Z,97296.81
2022-07-29T19:53:40.585Z,97299.94
2022-07-29T19:56:08.868Z,97297.50
2022-07-29T19:58:36.100Z,97295.16
2022-07-29T20:01:03.222Z,97291.63
2022-07-29T20:03:39.620Z,97290.69
2022-07-29T20:06:06.651Z,97292.63
2022-07-29T20:08:33.167Z,97288.75
2022-07-29T20:10:59.638Z,97290.56
2022-07-29T20:13:26.188Z,97294.13
2022-07-29T20:15:52.881Z,97296.13
2022-07-29T20:18:19.404Z,97301.00
2022-07-29T20:20:47.626Z,97296.00
2022-07-29T20:23:14.181Z,97298.94
2022-07-29T20:25:40.670Z,97297.84
2022-07-29T20:28:07.498Z,97299.56
2022-07-29T20:30:34.055Z,97301.25
2022-07-29T20:33:04.948Z,97295.28
2022-07-29T20:35:31.440Z,97286.50
2022-07-29T20:37:58.008Z,97288.03
2022-07-29T20:40:25.876Z,97287.88
2022-07-29T20:42:53.710Z,97281.28
2022-07-29T20:45:20.256Z,97283.13
2022-07-29T20:47:46.781Z,97285.44
2022-07-29T20:50:13.285Z,97292.91
2022-07-29T20:52:40.989Z,97293.00
2022-07-29T20:55:09.015Z,97294.63
2022-07-29T20:57:38.855Z,97298.69
2022-07-29T21:00:08.310Z,97295.69
2022-07-29T21:02:36.941Z,97292.84
2022-07-29T21:05:04.116Z,97295.56
2022-07-29T21:07:30.622Z,97294.28
2022-07-29T21:09:57.193Z,97300.00
2022-07-29T21:12:23.938Z,97304.91
2022-07-29T21:14:51.702Z,97306.03
2022-07-29T21:17:22.338Z,97306.94
2022-07-29T21:19:52.272Z,97302.16
2022-07-29T21:22:21.584Z,97306.72
2022-07-29T21:24:48.715Z,97303.31
2022-07-29T21:27:33.799Z,97308.88
2022-07-29T21:30:00.368Z,97312.84
2022-07-29T21:32:27.619Z,97311.59
2022-07-29T21:34:57.047Z,97316.22
2022-07-29T21:37:23.562Z,97308.34
2022-07-29T21:39:50.161Z,97309.88
2022-07-29T21:42:16.947Z,97309.28
2022-07-29T21:44:43.941Z,97308.84
2022-07-29T21:47:11.728Z,97319.16
2022-07-29T21:49:38.593Z,97319.19
2022-07-29T21:52:05.719Z,97318.91
2022-07-29T21:54:34.552Z,97318.69
2022-07-29T21:57:01.189Z,97315.66
2022-07-29T21:59:27.773Z,97322.25
2022-07-29T22:01:54.740Z,97327.31
2022-07-29T22:04:21.365Z,97319.69
2022-07-29T22:06:48.040Z,97317.22
2022-07-29T22:09:14.513Z,97316.50
2022-07-29T22:11:41.944Z,97319.44
2022-07-29T22:14:08.474Z,97326.81
2022-07-29T22:16:35.157Z,97324.97
2022-07-29T22:19:03.809Z,97321.63
2022-07-29T22:21:30.614Z,97316.88
2022-07-29T22:23:57.214Z,97325.69
2022-07-29T22:26:23.813Z,97326.25
2022-07-29T22:28:50.307Z,97328.16
2022-07-29T22:31:16.893Z,97322.66
2022-07-29T22:33:43.445Z,97323.13
2022-07-29T22:36:10.440Z,97329.00
2022-07-29T22:38:37.120Z,97327.25
2022-07-29T22:41:03.618Z,97327.72
2022-07-29T22:43:30.124Z,97335.31
2022-07-29T22:45:56.645Z,97335.50
2022-07-29T22:48:23.190Z,97340.00
2022-07-29T22:50:49.725Z,97335.94
2022-07-29T22:53:16.275Z,97339.81
2022-07-29T22:55:43.017Z,97337.63
2022-07-29T22:58:09.817Z,97337.63
2022-07-29T23:00:36.320Z,97339.72
2022-07-29T23:03:02.793Z,97339.66
2022-07-29T23:05:29.365Z,97338.03
2022-07-29T23:07:55.982Z,97329.91
2022-07-29T23:10:22.775Z,97334.75
2022-07-29T23:12:49.365Z,97342.22
2022-07-29T23:15:15.894Z,97343.84
2022-07-29T23:17:44.659Z,97346.13
2022-07-29T23:20:11.448Z,97344.59
2022-07-29T23:22:41.635Z,97353.75
2022-07-29T23:25:08.432Z,97360.88
2022-07-29T23:27:35.164Z,97347.72
2022-07-29T23:30:02.371Z,97353.25
2022-07-29T23:32:28.853Z,97352.91
2022-07-29T23:34:55.369Z,97367.09
2022-07-29T23:37:21.962Z,97363.28
2022-07-29T23:39:48.446Z,97358.38
2022-07-29T23:42:15.024Z,97361.66
2022-07-29T23:44:41.493Z,97365.66
2022-07-29T23:47:08.104Z,97360.88
2022-07-29T23:49:34.622Z,97367.91
2022-07-29T23:52:01.085Z,97367.63
2022-07-29T23:54:27.752Z,97365.72
2022-07-29T23:56:54.246Z,97371.50
2022-07-29T23:59:20.721Z,97360.50
